»·PEaware :: N714 KSNA-KBUR

N714 :: KSNA-KBUR

FLIGHT INFORMATION

Flight Status: Arrived
Operator: Privately registered:
United States
More flights under this callsign
Pilot: Anonymous 16836 (16836)
Aircraft: CESSNA 172 SKYHAWK
(C172)
More flights by this aircraft type
Origin: KSNA John Wayne-Orange Co
United States
Destination: KBUR Bob Hope-Burbank
United States
More flights between these airports :: More routes between these airports
Route: +SLI V23 POPPR SMO125R SMO311R SILEX
File this flight plan on PilotEdge
Remarks: I-3 rating
Altitude:
(Current/Filed)
4,000ft
Speed:
(Current/Filed)
110kts
Departed: 22-Jan-19 04:12 PM
Arrived: 22-Jan-19 04:54 PM
Distance/Time
Traveled:
40nm/0:42
Distance/Time
To Go:
Arrived

Flight Plot

Page will automatically refresh every two minutes.


Map Options




Map Legend


Flown Route
Filed Route
Departure Airport
Arrival Airport
Navaid (VOR, NDB)
Fix

Horizontal Profiles

Position Reports

Time Latitude Longitude Heading Altitude Ground
Speed
22-Jan-19 15:49 33.681801 -117.860603 117 60ft 0kts
22-Jan-19 15:50 33.681801 -117.860603 117 60ft 0kts
22-Jan-19 15:51 33.681801 -117.860603 117 60ft 0kts
22-Jan-19 15:52 33.681801 -117.860603 117 60ft 0kts
22-Jan-19 15:53 33.681801 -117.860603 117 60ft 0kts
22-Jan-19 15:55 33.681801 -117.860603 117 60ft 0kts
22-Jan-19 15:55 33.681801 -117.860603 117 60ft 0kts
22-Jan-19 15:56 33.681801 -117.860603 117 60ft 0kts
22-Jan-19 15:57 33.681801 -117.860603 117 60ft 0kts
22-Jan-19 15:58 33.681801 -117.860603 117 60ft 0kts
22-Jan-19 15:59 33.681801 -117.860603 117 60ft 0kts
22-Jan-19 16:00 33.681801 -117.860603 117 60ft 0kts
22-Jan-19 16:01 33.681801 -117.860603 117 60ft 0kts
22-Jan-19 16:02 33.681801 -117.860603 117 60ft 0kts
22-Jan-19 16:03 33.681801 -117.860603 117 60ft 0kts
22-Jan-19 16:04 33.681801 -117.860603 117 60ft 0kts
22-Jan-19 16:05 33.681855 -117.860880 281 60ft 18kts
22-Jan-19 16:06 33.680776 -117.863178 290 60ft 0kts
22-Jan-19 16:07 33.680499 -117.863174 149 60ft 8kts
22-Jan-19 16:08 33.677080 -117.865164 214 60ft 2kts
22-Jan-19 16:09 33.673869 -117.867496 291 60ft 0kts
22-Jan-19 16:10 33.673938 -117.867660 292 60ft 11kts
22-Jan-19 16:11 33.687832 -117.858840 31 466ft 87kts
22-Jan-19 16:12 33.696338 -117.868368 230 1448ft 85kts
22-Jan-19 16:13 33.680364 -117.890617 230 2192ft 102kts
22-Jan-19 16:14 33.669289 -117.914587 310 3250ft 71kts
22-Jan-19 16:15 33.686890 -117.935636 334 3869ft 94kts
22-Jan-19 16:16 33.707884 -117.961642 315 3967ft 118kts
22-Jan-19 16:17 33.728564 -117.988270 314 3953ft 105kts
22-Jan-19 16:18 33.748633 -118.015770 311 3974ft 112kts
22-Jan-19 16:19 33.771207 -118.041761 316 4038ft 112kts
22-Jan-19 16:20 33.788784 -118.069908 282 4042ft 101kts
22-Jan-19 16:21 33.794961 -118.103347 285 3978ft 104kts
22-Jan-19 16:22 33.803354 -118.136821 286 3944ft 104kts
22-Jan-19 16:23 33.811763 -118.170384 286 3912ft 104kts
22-Jan-19 16:24 33.820158 -118.204302 286 3899ft 111kts
22-Jan-19 16:25 33.829224 -118.240981 286 3988ft 115kts
22-Jan-19 16:26 33.838484 -118.277878 287 4087ft 115kts
22-Jan-19 16:27 33.860927 -118.304924 325 4175ft 115kts
22-Jan-19 16:28 33.887585 -118.326681 323 3993ft 120kts
22-Jan-19 16:29 33.911457 -118.350271 319 3911ft 104kts
22-Jan-19 16:30 33.933704 -118.373361 319 3897ft 110kts
22-Jan-19 16:31 33.957050 -118.397663 319 3947ft 111kts
22-Jan-19 16:32 33.979569 -118.423213 314 4001ft 111kts
22-Jan-19 16:33 34.001057 -118.448956 316 4024ft 107kts
22-Jan-19 16:34 34.022771 -118.473423 319 4026ft 107kts
22-Jan-19 16:35 34.043184 -118.499556 309 4029ft 107kts
22-Jan-19 16:36 34.061413 -118.526790 309 3995ft 103kts
22-Jan-19 16:37 34.079344 -118.553694 309 3941ft 103kts
22-Jan-19 16:38 34.097725 -118.581383 308 3923ft 109kts
22-Jan-19 16:40 34.116452 -118.609694 308 3969ft 111kts
22-Jan-19 16:41 34.135593 -118.638751 308 4021ft 111kts
22-Jan-19 16:42 34.153753 -118.666409 308 4048ft 105kts
22-Jan-19 16:43 34.172158 -118.693177 329 4000ft 102kts
22-Jan-19 16:44 34.193269 -118.676070 54 3913ft 99kts
22-Jan-19 16:45 34.202434 -118.643307 87 3898ft 112kts
22-Jan-19 16:46 34.202371 -118.605020 90 3987ft 114kts
22-Jan-19 16:47 34.201100 -118.567391 92 4052ft 105kts
22-Jan-19 16:48 34.199090 -118.536812 91 3567ft 90kts
22-Jan-19 16:49 34.199157 -118.507082 91 3056ft 85kts
22-Jan-19 16:50 34.198338 -118.476611 85 2633ft 99kts
22-Jan-19 16:51 34.198878 -118.442222 92 2040ft 101kts
22-Jan-19 16:52 34.198345 -118.410956 90 1533ft 83kts
22-Jan-19 16:53 34.198006 -118.381518 90 1046ft 91kts
22-Jan-19 16:54 34.197594 -118.360468 164 781ft 10kts
22-Jan-19 16:55 34.196722 -118.360080 165 781ft 7kts
22-Jan-19 16:56 34.196232 -118.359040 113 781ft 0kts
22-Jan-19 16:56 34.196226 -118.359029 122 781ft 0kts

Navigation Log

Ident Type
Flight plan parsing failed, navigation log unavailable